Latest Weather Observations for Hunters Hill

IDV60801

Issued at 6:32 pm EDT Friday 20 January 2017 (issued every 30 minutes, with the page automatically refreshed every 10 minutes)

About weather observations | Map of weather stations | Latest weather observations for VIC | Other Formats
Station Details ID: 082139 Name: HUNTERS HILL Lat: -36.21 Lon: 147.54 Height: 981.0 m
Data from the previous 72 hours. | See also: Recent months at Hunters Hill
Date/Time
EDT
Temp
°C
App
Temp
°C
Dew
Point
°C
Rel
Hum
%
Delta-T
°C
Wind Press
QNH
hPa
Press
MSL
hPa
Rain since
9am
mm
Dir  Spd
km/h
Gust
km/h
Spd
kts
Gust
kts
20/06:30pm 18.1 15.9 13.2 73 2.9 W 17 32 9 17 - - 13.4
20/06:00pm 18.9 17.2 13.7 72 3.1 WSW 15 32 8 17 - - 13.4
20/05:30pm 19.0 17.4 13.8 72 3.1 W 15 37 8 20 - - 13.4
20/05:00pm 19.1 19.8 17.1 88 1.3 WSW 9 20 5 11 - - 13.4
20/04:30pm 19.6 20.1 17.4 87 1.4 WSW 11 28 6 15 - - 13.4
20/04:00pm 19.9 21.1 18.2 90 1.1 WSW 9 24 5 13 - - 13.4
20/03:30pm 18.4 18.2 18.4 100 0.0 WSW 17 30 9 16 - - 13.4
20/03:00pm 17.0 17.7 17.0 100 0.0 WSW 9 37 5 20 - - 13.4
20/02:30pm 16.6 15.6 16.6 100 0.0 WSW 17 39 9 21 - - 13.4
20/02:00pm 17.1 16.3 17.1 100 0.0 WSW 17 41 9 22 - - 13.4
20/01:30pm 16.8 15.9 16.8 100 0.0 W 17 33 9 18 - - 13.4
20/01:00pm 17.0 16.5 17.0 100 0.0 W 15 35 8 19 - - 12.8
20/12:30pm 17.3 16.0 17.3 100 0.0 W 20 33 11 18 - - 12.6
20/12:00pm 17.2 16.4 17.2 100 0.0 WNW 17 32 9 17 - - 10.6
20/11:30am 17.3 16.6 17.3 100 0.0 WNW 17 35 9 19 - - 9.0
20/11:00am 16.6 16.7 16.6 100 0.0 NW 11 24 6 13 - - 6.2
20/10:30am 16.3 15.9 16.3 100 0.0 NW 13 26 7 14 - - 5.0
20/10:00am 15.4 14.7 15.4 100 0.0 N 13 28 7 15 - - 5.0
20/09:30am 15.4 15.1 15.4 100 0.0 N 11 24 6 13 - - 2.8
20/09:00am 15.2 14.4 15.2 100 0.0 NNW 13 28 7 15 - - 15.6
20/08:30am 15.1 14.3 15.1 100 0.0 N 13 28 7 15 - - 8.0
20/08:00am 15.3 15.3 15.3 100 0.0 NNE 9 20 5 11 - - 5.0
20/07:30am 15.2 15.6 15.2 100 0.0 NNE 7 13 4 7 - - 4.6
20/07:00am 14.7 15.5 14.7 100 0.0 NNE 4 9 2 5 - - 3.4
20/06:30am 15.4 16.0 15.4 100 0.0 WNW 6 9 3 5 - - 3.2
20/06:00am 14.9 14.4 14.9 100 0.0 W 11 20 6 11 - - 2.8
20/05:30am 15.6 15.7 14.5 93 0.7 NE 7 11 4 6 - - 1.0
20/05:00am 15.6 14.3 13.8 89 1.1 N 13 26 7 14 - - 0.8
20/04:30am 17.6 16.3 11.4 67 3.5 NE 9 13 5 7 - - 0.2
20/04:00am 18.3 17.6 11.4 64 4.0 NNE 6 11 3 6 - - 0.2
20/03:30am 18.3 17.6 11.4 64 4.0 NNE 6 13 3 7 - - 0.2
20/03:00am 18.5 17.7 11.6 64 4.0 NNE 7 17 4 9 - - 0.2
20/02:30am 19.2 18.1 10.7 58 4.8 NNE 7 13 4 7 - - 0.2
20/02:00am 19.5 17.5 10.2 55 5.2 NNE 11 22 6 12 - - 0.2
20/01:30am 19.9 17.8 9.8 52 5.7 NNE 11 20 6 11 - - 0.2
20/01:00am 20.1 18.4 9.7 51 5.8 NNE 9 20 5 11 - - 0.2
20/12:30am 20.5 18.7 9.4 49 6.2 NNE 9 17 5 9 - - 0.2
20/12:00am 20.9 19.4 9.2 47 6.5 NNE 7 17 4 9 - - 0.2
 
Date/Time
EDT
Temp
°C
App
Temp
°C
Dew
Point
°C
Rel
Hum
%
Delta-T
°C
Wind Press
QNH
hPa
Press
MSL
hPa
Rain since
9am
mm
Dir  Spd
km/h
Gust
km/h
Spd
kts
Gust
kts
19/11:30pm 21.3 19.7 8.6 44 7.0 NNE 7 11 4 6 - - 0.2
19/11:00pm 21.4 19.9 6.9 39 7.8 WSW 4 9 2 5 - - 0.2
19/10:30pm 21.3 20.7 7.2 40 7.6 CALM 0 4 0 2 - - 0.2
19/10:00pm 21.2 20.4 6.3 38 7.9 CALM 0 0 0 0 - - 0.2
19/09:30pm 21.7 21.0 6.8 38 8.0 CALM 0 0 0 0 - - 0.2
19/09:00pm 21.9 20.6 6.2 36 8.3 WSW 2 4 1 2 - - 0.2
19/08:30pm 22.5 20.9 6.3 35 8.6 WSW 4 6 2 3 - - 0.2
19/08:00pm 23.9 22.8 6.7 33 9.3 WSW 2 4 1 2 - - 0.2
19/07:30pm 25.4 23.7 6.1 29 10.4 WSW 4 6 2 3 - - 0.2
19/07:00pm 26.2 24.8 7.3 30 10.5 WSW 4 7 2 4 - - 0.2
19/06:30pm 26.5 24.9 6.5 28 11.0 W 4 7 2 4 - - 0.2
19/06:00pm 26.1 24.0 5.7 27 11.0 W 6 17 3 9 - - 0.2
19/05:30pm 26.0 23.8 6.1 28 10.8 WNW 7 15 4 8 - - 0.2
19/05:00pm 26.4 23.8 5.9 27 11.1 W 9 15 5 8 - - 0.2
19/04:30pm 25.8 23.3 6.4 29 10.6 WNW 9 17 5 9 - - 0.2
19/04:00pm 25.6 23.2 6.8 30 10.3 WNW 9 19 5 10 - - 0.2
19/03:30pm 25.3 22.9 7.0 31 10.0 WNW 9 17 5 9 - - 0.2
19/03:00pm 24.9 23.9 8.8 36 9.1 WNW 4 11 2 6 - - 0.2
19/02:30pm 24.2 22.8 9.4 39 8.4 W 7 13 4 7 - - 0.2
19/02:00pm 22.6 21.2 8.7 41 7.8 NNW 6 11 3 6 - - 0.2
19/01:30pm 23.7 23.1 10.4 43 7.7 W 4 9 2 5 - - 0.2
19/01:00pm 22.3 21.5 9.5 44 7.2 NW 4 11 2 6 - - 0.2
19/12:30pm 22.5 21.2 9.3 43 7.4 NNW 6 13 3 7 - - 0.2
19/12:00pm 21.2 20.1 10.1 49 6.3 NNE 6 11 3 6 - - 0.2
19/11:30am 21.1 20.8 11.4 54 5.6 NE 4 9 2 5 - - 0.2
19/11:00am 20.8 20.7 12.0 57 5.2 NE 4 9 2 5 - - 0.2
19/10:30am 19.3 18.8 10.6 57 4.9 E 4 7 2 4 - - 0.2
19/10:00am 18.1 17.4 10.0 59 4.5 ESE 4 7 2 4 - - 0.0
19/09:30am 18.0 17.8 10.4 61 4.3 ESE 2 6 1 3 - - 0.0
19/09:00am 16.7 16.2 9.4 62 4.0 ESE 2 6 1 3 - - 0.2
19/08:30am 14.4 13.6 9.8 74 2.5 ESE 4 6 2 3 - - 0.2
19/08:00am 13.3 12.5 9.5 78 2.0 ESE 4 6 2 3 - - 0.2
19/07:30am 12.6 11.7 9.4 81 1.7 ESE 4 7 2 4 - - 0.2
19/07:00am 11.9 11.0 9.1 83 1.5 ESE 4 6 2 3 - - 0.2
19/06:30am 11.4 9.9 8.6 83 1.5 ESE 6 6 3 3 - - 0.2
19/06:00am 11.7 10.3 8.9 83 1.5 ESE 6 7 3 4 - - 0.2
19/05:30am 11.5 10.1 8.7 83 1.5 ESE 6 7 3 4 - - 0.2
19/05:00am 11.4 9.9 8.6 83 1.5 ESE 6 6 3 3 - - 0.2
19/04:30am 11.5 10.0 8.4 81 1.6 ESE 6 7 3 4 - - 0.2
19/04:00am 11.7 10.2 8.4 80 1.7 ESE 6 7 3 4 - - 0.2
19/03:30am 12.0 10.3 8.3 78 1.9 ESE 7 9 4 5 - - 0.2
19/03:00am 12.1 10.4 8.4 78 1.9 SE 7 9 4 5 - - 0.2
19/02:30am 11.9 10.1 8.0 77 2.0 SE 7 9 4 5 - - 0.2
19/02:00am 12.3 10.6 8.2 76 2.1 SE 7 9 4 5 - - 0.2
19/01:30am 12.7 11.2 8.4 75 2.3 SE 6 9 3 5 - - 0.2
19/01:00am 13.1 11.7 8.8 75 2.3 SE 6 9 3 5 - - 0.2
19/12:30am 13.7 12.3 9.0 73 2.5 SE 6 9 3 5 - - 0.2
19/12:00am 14.1 12.8 9.1 72 2.7 SSE 6 13 3 7 - - 0.2
 
Date/Time
EDT
Temp
°C
App
Temp
°C
Dew
Point
°C
Rel
Hum
%
Delta-T
°C
Wind Press
QNH
hPa
Press
MSL
hPa
Rain since
9am
mm
Dir  Spd
km/h
Gust
km/h
Spd
kts
Gust
kts
18/11:30pm 14.4 13.2 9.4 72 2.7 SSE 6 9 3 5 - - 0.2
18/11:00pm 14.8 13.8 10.2 74 2.5 SSE 6 9 3 5 - - 0.2
18/10:30pm 15.4 14.8 10.4 72 2.8 SSE 4 6 2 3 - - 0.2
18/10:00pm 16.1 15.6 10.8 71 3.0 S 4 7 2 4 - - 0.2
18/09:30pm 16.5 16.1 11.0 70 3.1 S 4 11 2 6 - - 0.2
18/09:00pm 17.0 16.2 11.1 68 3.3 S 6 19 3 10 - - 0.2
18/08:30pm 18.0 18.1 11.6 66 3.7 WSW 2 4 1 2 - - 0.2
18/08:00pm 20.2 19.7 10.6 54 5.5 WSW 4 6 2 3 - - 0.2
18/07:30pm 22.0 20.8 9.5 45 7.0 W 6 11 3 6 - - 0.2
18/07:00pm 23.0 22.0 9.0 41 7.9 WSW 4 9 2 5 - - 0.2
18/06:30pm 22.4 20.4 7.0 37 8.3 WSW 7 22 4 12 - - 0.2
18/06:00pm 22.5 20.0 8.2 40 7.9 WSW 11 24 6 13 - - 0.2
18/05:30pm 23.2 21.0 6.1 33 9.1 W 7 17 4 9 - - 0.2
18/05:00pm 21.8 18.5 2.5 28 9.6 WSW 9 15 5 8 - - 0.2
18/04:30pm 20.7 19.3 8.7 46 6.6 W 6 13 3 7 - - 0.2
18/04:00pm 22.0 20.7 11.1 50 6.3 WSW 9 19 5 10 - - 0.2
18/03:30pm 20.9 19.4 10.7 52 5.8 W 9 19 5 10 - - 0.2
18/03:00pm 20.7 19.0 11.3 55 5.4 W 11 22 6 12 - - 0.2
18/02:30pm 20.6 18.8 12.1 58 5.0 W 13 24 7 13 - - 0.2
18/02:00pm 20.6 18.8 12.1 58 5.0 W 13 26 7 14 - - 0.2
18/01:30pm 18.0 16.3 13.7 76 2.6 WSW 15 39 8 21 - - 0.2
18/01:00pm 22.0 20.0 10.2 47 6.7 W 11 20 6 11 - - 0.0
18/12:30pm 22.8 20.9 10.6 46 7.0 WSW 11 24 6 13 - - 0.0
18/12:00pm 24.6 22.6 10.1 40 8.4 SW 11 28 6 15 - - 0.0
18/11:30am 23.2 21.4 9.6 42 7.7 SW 9 17 5 9 - - 0.0
18/11:00am 21.9 19.3 7.7 40 7.7 WSW 11 20 6 11 - - 0.0
18/10:30am 21.6 18.9 7.4 40 7.7 WSW 11 20 6 11 - - 0.0
18/10:00am 22.2 19.0 6.8 37 8.3 WSW 13 28 7 15 - - 0.0
18/09:30am 23.5 22.5 8.8 39 8.2 W 4 9 2 5 - - 0.0
18/09:00am 22.8 22.4 9.6 43 7.5 WNW 2 4 1 2 - - 0.0
18/08:30am 22.1 20.8 7.5 39 7.9 WNW 4 6 2 3 - - 0.0
18/08:00am 21.9 21.4 7.7 40 7.7 CALM 0 0 0 0 - - 0.0
18/07:30am 22.1 20.3 3.3 29 9.5 W 2 4 1 2 - - 0.0
18/07:00am 22.1 20.7 3.7 30 9.3 CALM 0 0 0 0 - - 0.0
18/06:30am 21.3 19.4 2.6 29 9.3 WSW 2 6 1 3 - - 0.0
18/06:00am 21.6 19.0 3.3 30 9.2 WSW 6 9 3 5 - - 0.0
18/05:30am 22.7 19.6 3.8 29 9.7 WSW 9 15 5 8 - - 0.0
18/05:00am 23.9 20.5 -0.4 20 11.6 WSW 7 13 4 7 - - 0.0
18/04:30am 24.6 21.1 -1.3 18 12.2 W 7 11 4 6 - - 0.0
18/04:00am 25.3 21.2 -3.2 15 13.0 W 9 13 5 7 - - 0.0
18/03:30am 26.3 22.1 -4.3 13 13.8 W 9 17 5 9 - - 0.0
18/03:00am 26.9 22.2 -4.9 12 14.3 W 11 20 6 11 - - 0.0
18/02:30am 27.3 22.5 -5.7 11 14.7 W 11 17 6 9 - - 0.0
18/02:00am 26.8 22.5 -4.9 12 14.2 WNW 9 15 5 8 - - 0.0
18/01:30am 27.6 23.2 -5.5 11 14.8 WNW 9 15 5 8 - - 0.0
18/01:00am 27.3 23.5 -3.5 13 14.2 WNW 7 13 4 7 - - 0.0
18/12:30am 27.6 23.7 -4.3 12 14.6 W 7 13 4 7 - - 0.0
18/12:00am 28.0 24.0 -5.2 11 15.0 W 7 13 4 7 - - 0.0
 
Date/Time
EDT
Temp
°C
App
Temp
°C
Dew
Point
°C
Rel
Hum
%
Delta-T
°C
Wind Press
QNH
hPa
Press
MSL
hPa
Rain since
9am
mm
Dir  Spd
km/h
Gust
km/h
Spd
kts
Gust
kts
17/11:30pm 28.1 24.3 -3.9 12 14.8 WSW 7 15 4 8 - - 0.0
17/11:00pm 28.4 24.6 -3.7 12 14.9 WSW 7 15 4 8 - - 0.0
17/10:30pm 28.2 24.4 -3.9 12 14.8 W 7 15 4 8 - - 0.0
17/10:00pm 28.0 24.4 -2.0 14 14.3 WSW 7 13 4 7 - - 0.0
17/09:30pm 28.4 24.9 -1.6 14 14.4 WSW 7 11 4 6 - - 0.0
17/09:00pm 28.3 24.8 -1.7 14 14.4 W 7 11 4 6 - - 0.0
17/08:30pm 29.0 25.4 -2.2 13 14.9 W 7 13 4 7 - - 0.0
17/08:00pm 29.6 26.4 -0.7 14 14.9 W 6 13 3 7 - - 0.0
17/07:30pm 30.8 27.8 2.1 16 15.0 W 7 13 4 7 - - 0.0
17/07:00pm 31.7 29.0 2.8 16 15.3 WNW 6 15 3 8 - - 0.0

Other Formats:

Comma delimited format used in spreadsheet applications
http://www.bom.gov.au/fwo/IDV60801/IDV60801.94878.axf

JavaScript Object Notation format (JSON) in row-major order
http://www.bom.gov.au/fwo/IDV60801/IDV60801.94878.json